createdAt,value
2022-12-16T00:02:37.546Z,99166.25
2022-12-16T00:05:05.867Z,99169.69
2022-12-16T00:07:33.628Z,99039.94
2022-12-16T00:10:01.299Z,99161.00
2022-12-16T00:12:29.209Z,99168.75
2022-12-16T00:14:56.875Z,99163.63
2022-12-16T00:17:24.709Z,99154.81
2022-12-16T00:19:53.770Z,99162.72
2022-12-16T00:22:23.910Z,99155.84
2022-12-16T00:24:52.341Z,99155.84
2022-12-16T00:27:20.145Z,99160.94
2022-12-16T00:29:47.761Z,99163.44
2022-12-16T00:32:15.459Z,99153.63
2022-12-16T00:34:43.264Z,99168.41
2022-12-16T00:37:14.155Z,99170.06
2022-12-16T00:39:41.910Z,99170.84
2022-12-16T00:42:09.609Z,99167.22
2022-12-16T00:44:37.493Z,99168.94
2022-12-16T00:47:05.289Z,99175.66
2022-12-16T00:49:33.145Z,99173.78
2022-12-16T00:52:00.929Z,99173.75
2022-12-16T00:54:30.107Z,99168.63
2022-12-16T00:56:57.752Z,99173.75
2022-12-16T00:59:26.590Z,99175.38
2022-12-16T01:01:54.583Z,99174.56
2022-12-16T01:04:23.039Z,99173.63
2022-12-16T01:06:50.848Z,99170.06
2022-12-16T01:09:18.486Z,99170.09
2022-12-16T01:11:47.608Z,99169.91
2022-12-16T01:14:15.236Z,99177.69
2022-12-16T01:16:42.943Z,99192.22
2022-12-16T01:19:10.893Z,99175.66
2022-12-16T01:21:38.609Z,99192.09
2022-12-16T01:24:07.173Z,99185.91
2022-12-16T01:26:34.831Z,99198.78
2022-12-16T01:29:05.113Z,99182.28
2022-12-16T01:31:32.902Z,99194.38
2022-12-16T01:34:00.849Z,99197.75
2022-12-16T01:36:28.515Z,99196.06
2022-12-16T01:38:56.636Z,99189.84
2022-12-16T01:41:24.336Z,99195.09
2022-12-16T01:43:52.097Z,99195.91
2022-12-16T01:46:22.604Z,99197.53
2022-12-16T01:48:52.870Z,99200.09
2022-12-16T01:51:23.797Z,99201.81
2022-12-16T01:53:52.028Z,99179.25
2022-12-16T01:56:23.249Z,99204.16
2022-12-16T01:58:51.148Z,99209.41
2022-12-16T02:01:23.570Z,99200.50
2022-12-16T02:03:51.534Z,99209.84
2022-12-16T02:06:20.902Z,99213.22
2022-12-16T02:08:49.129Z,99211.44
2022-12-16T02:11:28.902Z,99150.38
2022-12-16T02:14:16.087Z,99214.75
2022-12-16T02:16:47.977Z,99229.13
2022-12-16T02:19:28.042Z,99199.22
2022-12-16T02:21:58.338Z,99206.91
2022-12-16T02:25:03.424Z,99204.28
2022-12-16T02:27:42.089Z,99191.94
2022-12-16T02:30:23.310Z,99207.66
2022-12-16T02:32:54.776Z,99211.03
2022-12-16T02:35:26.566Z,99210.22
2022-12-16T02:37:57.950Z,99160.59
2022-12-16T02:40:27.959Z,99220.44
2022-12-16T02:42:57.107Z,99212.78
2022-12-16T02:45:27.742Z,99227.81
2022-12-16T02:47:55.820Z,99223.81
2022-12-16T02:50:25.126Z,99212.59
2022-12-16T02:52:52.839Z,99214.31
2022-12-16T02:55:20.894Z,99216.88
2022-12-16T02:58:08.960Z,99222.84
2022-12-16T03:00:42.229Z,99177.47
2022-12-16T03:03:10.922Z,99195.56
2022-12-16T03:05:40.863Z,99246.72
2022-12-16T03:08:10.184Z,99227.88
2022-12-16T03:10:39.737Z,99212.16
2022-12-16T03:13:07.407Z,99203.50
2022-12-16T03:15:35.358Z,99154.56
2022-12-16T03:18:04.813Z,99162.25
2022-12-16T03:20:34.900Z,99231.19
2022-12-16T03:23:04.054Z,99209.41
2022-12-16T03:25:31.877Z,99227.78
2022-12-16T03:28:01.662Z,99225.13
2022-12-16T03:30:31.039Z,99236.13
2022-12-16T03:33:00.265Z,99180.41
2022-12-16T03:35:33.295Z,99236.13
2022-12-16T03:38:01.107Z,99225.66
2022-12-16T03:40:28.985Z,99232.66
2022-12-16T03:42:56.645Z,99230.06
2022-12-16T03:45:25.763Z,99201.00
2022-12-16T03:47:53.643Z,99227.28
2022-12-16T03:50:25.176Z,99219.25
2022-12-16T03:52:54.259Z,99235.78
2022-12-16T03:55:21.961Z,99238.34
2022-12-16T03:57:49.788Z,99211.22
2022-12-16T04:00:17.966Z,99231.25
2022-12-16T04:02:45.759Z,99236.47
2022-12-16T04:05:14.024Z,99240.66
2022-12-16T04:07:41.703Z,99229.44
2022-12-16T04:10:11.038Z,99242.31
2022-12-16T04:12:56.543Z,99238.94
2022-12-16T04:15:41.627Z,99229.22
2022-12-16T04:18:28.082Z,99240.44
2022-12-16T04:21:13.984Z,99242.13
2022-12-16T04:24:02.232Z,99245.44
2022-12-16T04:26:31.203Z,99238.50
2022-12-16T04:28:59.149Z,99248.06
2022-12-16T04:31:27.056Z,99254.06
2022-12-16T04:34:12.535Z,99251.38
2022-12-16T04:36:59.041Z,99262.56
2022-12-16T04:39:44.097Z,99267.56
2022-12-16T04:42:31.944Z,99268.38
2022-12-16T04:45:17.545Z,99265.81
2022-12-16T04:48:02.986Z,99269.88
2022-12-16T04:50:48.177Z,99277.72
2022-12-16T04:53:34.047Z,99278.38
2022-12-16T04:56:19.749Z,99286.88
2022-12-16T04:59:06.551Z,99285.22
2022-12-16T05:01:51.901Z,99289.50
2022-12-16T05:04:37.237Z,99294.63
2022-12-16T05:07:22.658Z,99292.00
2022-12-16T05:10:07.962Z,99298.00
2022-12-16T05:12:53.427Z,99299.69
2022-12-16T05:15:40.076Z,99300.50
2022-12-16T05:18:28.575Z,99289.00
2022-12-16T05:21:13.881Z,99302.00
2022-12-16T05:23:59.239Z,99274.38
2022-12-16T05:26:44.414Z,99308.81
2022-12-16T05:29:29.766Z,99308.75
2022-12-16T05:32:16.419Z,99305.19
2022-12-16T05:35:01.875Z,99271.97
2022-12-16T05:37:47.351Z,99313.00
2022-12-16T05:40:32.430Z,99318.16
2022-12-16T05:43:17.785Z,99319.88
2022-12-16T05:46:03.072Z,99318.81
2022-12-16T05:48:49.675Z,99335.16
2022-12-16T05:51:35.027Z,99329.78
2022-12-16T05:54:20.123Z,99332.34
2022-12-16T05:57:05.199Z,99338.28
2022-12-16T06:02:18.399Z,99345.16
2022-12-16T06:05:05.356Z,99346.78
2022-12-16T06:07:50.803Z,99351.09
2022-12-16T06:10:35.889Z,99353.66
2022-12-16T06:13:21.560Z,99357.09
2022-12-16T06:16:09.140Z,99353.53
2022-12-16T06:18:54.876Z,99369.00
2022-12-16T06:21:42.009Z,99369.81
2022-12-16T06:24:27.468Z,99368.19
2022-12-16T06:27:12.662Z,99373.31
2022-12-16T06:29:58.319Z,99375.88
2022-12-16T06:32:43.403Z,99378.38
2022-12-16T06:35:28.581Z,99367.31
2022-12-16T06:38:15.381Z,99380.13
2022-12-16T06:41:00.571Z,99380.00
2022-12-16T06:43:46.036Z,99379.13
2022-12-16T06:46:31.246Z,99394.66
2022-12-16T06:49:16.594Z,99397.94
2022-12-16T06:52:01.690Z,99404.84
2022-12-16T06:54:48.420Z,99402.16
2022-12-16T06:57:33.765Z,99406.47
2022-12-16T07:00:18.970Z,99408.22
2022-12-16T07:03:04.708Z,99420.06
2022-12-16T07:05:50.308Z,99431.22
2022-12-16T07:08:35.775Z,99425.13
2022-12-16T07:11:22.381Z,99439.00
2022-12-16T07:14:07.739Z,99442.50
2022-12-16T07:17:02.495Z,99451.06
2022-12-16T07:19:47.726Z,99457.03
2022-12-16T07:22:34.270Z,99457.94
2022-12-16T07:28:27.399Z,99471.59
2022-12-16T07:31:16.506Z,99478.53
2022-12-16T07:37:17.819Z,99483.75
2022-12-16T07:40:03.599Z,99487.91
2022-12-16T07:42:45.429Z,99496.84
2022-12-16T07:45:37.105Z,99466.28
2022-12-16T07:48:25.069Z,99498.03
2022-12-16T07:51:10.658Z,99497.16
2022-12-16T07:53:56.136Z,99510.34
2022-12-16T07:56:41.814Z,99508.78
2022-12-16T07:59:27.294Z,99512.44
2022-12-16T08:02:14.288Z,99516.94
2022-12-16T08:05:12.638Z,99519.56
2022-12-16T08:07:58.551Z,99535.13
2022-12-16T08:10:44.164Z,99535.28
2022-12-16T08:13:29.779Z,99532.97
2022-12-16T08:16:15.646Z,99536.63
2022-12-16T08:19:07.575Z,99528.94
2022-12-16T08:21:56.474Z,99539.75
2022-12-16T08:24:41.237Z,99542.34
2022-12-16T08:27:26.673Z,99544.50
2022-12-16T08:30:17.385Z,99553.59
2022-12-16T08:33:12.110Z,99546.44
2022-12-16T08:36:07.283Z,99546.84
2022-12-16T08:38:52.998Z,99550.28
2022-12-16T08:41:38.628Z,99549.94
2022-12-16T08:44:24.404Z,99548.25
2022-12-16T08:47:09.860Z,99550.66
2022-12-16T08:49:57.907Z,99555.41
2022-12-16T08:52:48.662Z,99550.34
2022-12-16T08:55:48.631Z,99559.03
2022-12-16T08:58:33.950Z,99558.13
2022-12-16T09:01:19.499Z,99561.47
2022-12-16T09:04:05.076Z,99560.28
2022-12-16T09:06:52.421Z,99558.19
2022-12-16T09:09:39.180Z,99570.00
2022-12-16T09:12:25.181Z,99564.03
2022-12-16T09:15:10.604Z,99565.75
2022-12-16T09:17:55.897Z,99569.84
2022-12-16T09:20:41.983Z,99575.00
2022-12-16T09:23:29.503Z,99563.47
2022-12-16T09:26:17.777Z,99578.22
2022-12-16T09:29:06.927Z,99562.44
2022-12-16T09:31:52.446Z,99579.28
2022-12-16T09:34:37.946Z,99578.66
2022-12-16T09:37:23.473Z,99587.88
2022-12-16T09:40:09.041Z,99587.72
2022-12-16T09:42:59.988Z,99586.22
2022-12-16T09:45:53.361Z,99595.19
2022-12-16T09:48:41.285Z,99595.03
2022-12-16T09:51:27.041Z,99609.53
2022-12-16T09:54:13.108Z,99570.94
2022-12-16T09:56:58.530Z,99600.53
2022-12-16T09:59:46.897Z,99599.13
2022-12-16T10:02:33.383Z,99595.53
2022-12-16T10:05:18.983Z,99597.00
2022-12-16T10:08:19.133Z,99603.13
2022-12-16T10:11:07.389Z,99607.19
2022-12-16T10:13:55.796Z,99596.00
2022-12-16T10:16:46.805Z,99597.00
2022-12-16T10:19:40.531Z,99613.09
2022-12-16T10:25:46.191Z,99611.47
2022-12-16T10:28:34.856Z,99611.47
2022-12-16T10:31:20.545Z,99615.22
2022-12-16T10:34:08.284Z,99604.19
2022-12-16T10:36:55.396Z,99613.31
2022-12-16T10:39:44.806Z,99619.94
2022-12-16T10:42:35.402Z,99618.34
2022-12-16T10:45:20.528Z,99615.81
2022-12-16T10:48:05.861Z,99614.59
2022-12-16T10:50:52.607Z,99614.41
2022-12-16T10:53:41.236Z,99616.97
2022-12-16T10:56:33.373Z,99625.31
2022-12-16T10:59:20.308Z,99605.56
2022-12-16T11:02:16.063Z,99622.13
2022-12-16T11:05:06.746Z,99616.16
2022-12-16T11:07:56.744Z,99614.56
2022-12-16T11:10:52.939Z,99615.22
2022-12-16T11:13:40.945Z,99594.00
2022-12-16T11:16:29.451Z,99611.25
2022-12-16T11:19:16.105Z,99620.47
2022-12-16T11:22:01.553Z,99615.06
2022-12-16T11:24:48.728Z,99612.34
2022-12-16T11:27:40.534Z,99604.63
2022-12-16T11:30:37.571Z,99616.88
2022-12-16T11:33:29.004Z,99616.41
2022-12-16T11:36:23.997Z,99608.34
2022-12-16T11:39:11.830Z,99607.88
2022-12-16T11:41:59.943Z,99619.34
2022-12-16T11:44:47.050Z,99621.25
2022-12-16T11:47:39.094Z,99622.78
2022-12-16T11:50:30.547Z,99630.72
2022-12-16T11:53:15.813Z,99629.44
2022-12-16T11:56:10.786Z,99626.94
2022-12-16T11:59:01.531Z,99624.84
2022-12-16T12:01:48.805Z,99623.22
2022-12-16T12:04:34.516Z,99615.75
2022-12-16T12:07:44.643Z,99637.22
2022-12-16T12:10:52.331Z,99621.97
2022-12-16T12:13:46.970Z,99623.75
2022-12-16T12:16:36.805Z,99625.31
2022-12-16T12:19:43.791Z,99622.25
2022-12-16T12:22:31.370Z,99610.06
2022-12-16T12:25:33.127Z,99625.78
2022-12-16T12:28:21.014Z,99625.13
2022-12-16T12:31:11.661Z,99587.53
2022-12-16T12:34:12.855Z,99629.28
2022-12-16T12:37:04.954Z,99624.16
2022-12-16T12:39:53.878Z,99621.63
2022-12-16T12:42:49.277Z,99633.53
2022-12-16T12:45:48.213Z,99630.56
2022-12-16T12:48:35.999Z,99628.56
2022-12-16T12:51:26.503Z,99639.97
2022-12-16T12:54:15.004Z,99627.91
2022-12-16T12:57:01.957Z,99632.28
2022-12-16T12:59:48.421Z,99635.28
2022-12-16T13:02:34.611Z,99642.16
2022-12-16T13:05:24.322Z,99639.19
2022-12-16T13:08:11.838Z,99644.63
2022-12-16T13:11:09.280Z,99646.41
2022-12-16T13:13:55.640Z,99521.94
2022-12-16T13:17:25.468Z,99652.25
2022-12-16T13:20:15.661Z,99654.03
2022-12-16T13:23:01.918Z,99655.06
2022-12-16T13:26:01.763Z,99661.03
2022-12-16T13:28:48.379Z,99662.34
2022-12-16T13:31:33.936Z,99664.44
2022-12-16T13:34:22.671Z,99668.19
2022-12-16T13:37:19.539Z,99671.78
2022-12-16T13:40:19.202Z,99678.16
2022-12-16T13:43:13.202Z,99676.53
2022-12-16T13:46:00.318Z,99677.47
2022-12-16T13:48:56.667Z,99695.91
2022-12-16T13:52:26.657Z,99691.59
2022-12-16T13:55:24.629Z,99697.81
2022-12-16T13:58:11.371Z,99698.78
2022-12-16T14:00:58.681Z,99704.97
2022-12-16T14:03:55.342Z,99715.44
2022-12-16T14:06:41.928Z,99613.75
2022-12-16T14:09:37.243Z,99718.09
2022-12-16T14:12:35.349Z,99722.41
2022-12-16T14:15:29.089Z,99724.16
2022-12-16T14:18:17.860Z,99735.41
2022-12-16T14:21:06.969Z,99736.25
2022-12-16T14:23:57.424Z,99755.34
2022-12-16T14:26:43.535Z,99746.59
2022-12-16T14:29:36.004Z,99755.25
2022-12-16T14:32:21.979Z,99763.91
2022-12-16T14:35:09.740Z,99763.81
2022-12-16T14:37:56.092Z,99809.78
2022-12-16T14:40:42.448Z,99758.47
2022-12-16T14:43:31.042Z,99777.47
2022-12-16T14:46:16.844Z,99770.47
2022-12-16T14:49:04.522Z,99698.91
2022-12-16T14:51:52.093Z,99764.19
2022-12-16T14:54:39.749Z,99778.84
2022-12-16T14:57:29.561Z,99783.13
2022-12-16T15:00:31.139Z,99783.91
2022-12-16T15:03:19.060Z,99791.59
2022-12-16T15:06:04.959Z,99768.81
2022-12-16T15:08:53.615Z,99806.13
2022-12-16T15:11:39.991Z,99797.28
2022-12-16T15:14:25.399Z,99811.13
2022-12-16T15:17:11.274Z,99812.69
2022-12-16T15:20:03.106Z,99820.41
2022-12-16T15:22:48.964Z,99827.22
2022-12-16T15:25:40.258Z,99828.81
2022-12-16T15:28:41.062Z,99821.63
2022-12-16T15:31:32.697Z,99840.59
2022-12-16T15:34:36.297Z,99840.50
2022-12-16T15:37:22.733Z,99842.09
2022-12-16T15:40:08.207Z,99854.88
2022-12-16T15:43:00.988Z,99858.19
2022-12-16T15:45:49.497Z,99856.34
2022-12-16T15:48:37.757Z,99857.03
2022-12-16T15:51:34.699Z,99862.09
2022-12-16T15:54:20.705Z,99857.56
2022-12-16T15:57:07.205Z,99875.69
2022-12-16T15:59:54.828Z,99880.72
2022-12-16T16:02:41.543Z,99877.00
2022-12-16T16:05:30.951Z,99890.75
2022-12-16T16:08:16.426Z,99888.03
2022-12-16T16:11:03.449Z,99881.63
2022-12-16T16:13:52.884Z,99896.28
2022-12-16T16:16:39.793Z,99908.34
2022-12-16T16:19:28.582Z,99915.13
2022-12-16T16:22:14.177Z,99918.41
2022-12-16T16:24:59.824Z,99911.19
2022-12-16T16:27:45.500Z,99926.75
2022-12-16T16:30:31.968Z,99931.84
2022-12-16T16:33:19.519Z,99929.13
2022-12-16T16:36:05.136Z,99931.56
2022-12-16T16:39:02.788Z,99934.03
2022-12-16T16:41:48.565Z,99909.44
2022-12-16T16:44:34.383Z,99943.28
2022-12-16T16:47:20.100Z,99951.00
2022-12-16T16:50:07.363Z,99954.19
2022-12-16T16:52:52.550Z,99967.06
2022-12-16T16:55:39.587Z,99966.22
2022-12-16T16:58:26.268Z,99972.06
2022-12-16T17:01:12.065Z,99977.13
2022-12-16T17:03:57.964Z,99985.66
2022-12-16T17:06:45.674Z,99972.34
2022-12-16T17:09:31.413Z,99970.50
2022-12-16T17:12:22.220Z,99980.81
2022-12-16T17:18:52.177Z,99953.91
2022-12-16T17:21:41.730Z,99995.78
2022-12-16T17:24:31.862Z,99996.41
2022-12-16T17:27:20.537Z,99988.59
2022-12-16T17:30:06.169Z,99995.34
2022-12-16T17:32:51.936Z,99991.31
2022-12-16T17:35:37.529Z,99987.94
2022-12-16T17:38:22.747Z,100007.03
2022-12-16T17:41:11.899Z,100019.00
2022-12-16T17:43:57.942Z,100016.22
2022-12-16T17:46:43.273Z,100029.97
2022-12-16T17:49:28.951Z,100026.44
2022-12-16T17:52:14.665Z,99992.16
2022-12-16T17:55:00.298Z,100003.78
2022-12-16T17:57:48.466Z,100047.50
2022-12-16T18:00:36.323Z,100040.53
2022-12-16T18:03:22.384Z,100064.19
2022-12-16T18:06:08.318Z,100060.84
2022-12-16T18:08:53.758Z,100073.13
2022-12-16T18:11:47.708Z,100054.06
2022-12-16T18:14:34.463Z,100080.44
2022-12-16T18:17:20.090Z,100069.97
2022-12-16T18:20:05.904Z,100071.91
2022-12-16T18:22:54.368Z,100072.81
2022-12-16T18:25:40.285Z,100078.13
2022-12-16T18:28:25.820Z,100087.63
2022-12-16T18:31:12.853Z,100085.63
2022-12-16T18:33:58.462Z,100086.50
2022-12-16T18:36:43.986Z,100086.56
2022-12-16T18:39:30.655Z,100088.13
2022-12-16T18:42:16.051Z,100091.63
2022-12-16T18:45:07.187Z,100088.19
2022-12-16T18:47:54.662Z,100092.41
2022-12-16T18:50:40.919Z,100087.09
2022-12-16T18:53:26.503Z,100094.88
2022-12-16T18:56:19.437Z,100101.81
2022-12-16T18:59:06.937Z,100104.34
2022-12-16T19:01:52.347Z,100106.00
2022-12-16T19:04:39.622Z,100123.97
2022-12-16T19:07:25.134Z,100142.88
2022-12-16T19:10:10.490Z,100105.81
2022-12-16T19:12:56.478Z,100102.22
2022-12-16T19:15:41.933Z,100106.56
2022-12-16T19:18:27.836Z,100114.31
2022-12-16T19:21:15.131Z,100108.13
2022-12-16T19:24:00.444Z,100112.47
2022-12-16T19:26:45.963Z,100126.28
2022-12-16T19:29:31.391Z,100126.28
2022-12-16T19:32:16.867Z,100132.34
2022-12-16T19:35:02.316Z,100118.22
2022-12-16T19:37:48.878Z,100131.31
2022-12-16T19:40:34.501Z,100126.22
2022-12-16T19:43:19.091Z,100133.13
2022-12-16T19:46:10.451Z,100136.47
2022-12-16T19:51:29.624Z,100162.56
2022-12-16T19:54:16.188Z,100134.59
2022-12-16T19:57:01.521Z,100145.00
2022-12-16T19:59:46.935Z,100150.78
2022-12-16T20:02:33.346Z,100121.69
2022-12-16T20:05:18.569Z,100153.31
2022-12-16T20:08:03.861Z,100163.63
2022-12-16T20:10:50.555Z,100164.47
2022-12-16T20:13:40.238Z,100169.69
2022-12-16T20:16:27.646Z,100168.91
2022-12-16T20:22:22.125Z,100173.34
2022-12-16T20:25:07.443Z,100172.44
2022-12-16T20:27:54.143Z,100193.13
2022-12-16T20:30:41.694Z,100195.00
2022-12-16T20:33:31.180Z,100196.81
2022-12-16T20:36:17.131Z,100188.22
2022-12-16T20:39:02.712Z,100191.63
2022-12-16T20:41:49.179Z,100128.31
2022-12-16T20:44:35.746Z,100206.25
2022-12-16T20:47:21.121Z,100196.81
2022-12-16T20:50:06.698Z,100203.72
2022-12-16T20:52:52.055Z,100209.81
2022-12-16T20:55:37.141Z,100195.75
2022-12-16T20:58:22.513Z,100214.28
2022-12-16T21:01:10.856Z,100212.53
2022-12-16T21:03:56.230Z,100219.56
2022-12-16T21:06:42.684Z,100217.84
2022-12-16T21:09:27.724Z,100220.50
2022-12-16T21:12:13.078Z,100221.28
2022-12-16T21:14:58.062Z,100227.22
2022-12-16T21:17:45.065Z,100222.88
2022-12-16T21:20:30.349Z,100219.25
2022-12-16T21:23:18.885Z,100187.47
2022-12-16T21:26:03.970Z,100238.28
2022-12-16T21:28:53.340Z,100218.59
2022-12-16T21:31:42.703Z,100248.38
2022-12-16T21:34:31.172Z,100260.41
2022-12-16T21:37:19.581Z,100255.69
2022-12-16T21:40:04.780Z,100264.09
2022-12-16T21:42:56.406Z,100253.06
2022-12-16T21:45:41.954Z,100279.69
2022-12-16T21:48:29.610Z,100288.94
2022-12-16T21:51:16.426Z,100261.47
2022-12-16T21:54:04.888Z,100297.41
2022-12-16T21:56:53.212Z,100298.25
2022-12-16T21:59:47.269Z,100298.25
2022-12-16T22:02:32.688Z,100298.41
2022-12-16T22:05:18.157Z,100304.31
2022-12-16T22:08:05.780Z,100288.47
2022-12-16T22:10:50.857Z,100243.38
2022-12-16T22:13:45.778Z,100314.72
2022-12-16T22:16:31.057Z,100316.28
2022-12-16T22:19:15.594Z,100271.28
2022-12-16T22:22:01.092Z,100316.50
2022-12-16T22:24:49.034Z,100325.13
2022-12-16T22:27:34.276Z,100303.94
2022-12-16T22:30:19.452Z,100335.38
2022-12-16T22:33:04.824Z,100286.91
2022-12-16T22:35:50.446Z,100342.81
2022-12-16T22:38:35.584Z,100284.34
2022-12-16T22:41:22.294Z,100345.84
2022-12-16T22:44:07.464Z,100348.25
2022-12-16T22:46:52.858Z,100351.53
2022-12-16T22:49:41.713Z,100353.22
2022-12-16T22:52:27.106Z,100314.31
2022-12-16T22:55:12.235Z,100318.75
2022-12-16T22:57:59.029Z,100355.53
2022-12-16T23:00:43.990Z,100360.63
2022-12-16T23:03:33.272Z,100353.34
2022-12-16T23:06:18.498Z,100354.84
2022-12-16T23:09:03.833Z,100365.66
2022-12-16T23:11:51.170Z,100353.13
2022-12-16T23:14:42.745Z,100367.34
2022-12-16T23:17:29.368Z,100357.34
2022-12-16T23:20:14.752Z,100377.16
2022-12-16T23:22:59.672Z,100317.44
2022-12-16T23:25:45.112Z,100366.03
2022-12-16T23:28:30.469Z,100360.69
2022-12-16T23:31:17.204Z,100378.94
2022-12-16T23:34:02.362Z,100371.97
2022-12-16T23:36:47.567Z,100381.53
2022-12-16T23:39:29.560Z,100387.47
2022-12-16T23:42:15.382Z,100392.72
2022-12-16T23:45:01.825Z,100403.84
2022-12-16T23:47:48.580Z,100383.31
2022-12-16T23:50:34.167Z,100386.06
2022-12-16T23:53:22.568Z,100315.91
2022-12-16T23:56:07.651Z,100391.75
2022-12-16T23:58:52.404Z,100365.00
